Time;durP1;ratioP1;P1;durP2;ratioP2;P2;SDS_P1;SDS_P2;PMS_P1;PMS_P2;Temp;Humidity;BMP_temperature;BMP_pressure;BME280_temperature;BME280_humidity;BME280_pressure;Samples;Min_cycle;Max_cycle;Signal;HPM_P1;HPM_P2
2021/04/11 00:00:09;;;;;;;3.05;1.30;;;16.80;40.20;;;;;;5026814;28;20029;-70
2021/04/11 00:02:36;;;;;;;3.83;1.00;;;16.70;41.70;;;;;;5025413;28;20087;-69
2021/04/11 00:05:05;;;;;;;6.88;1.30;;;16.70;41.00;;;;;;5037921;28;20033;-67
2021/04/11 00:07:33;;;;;;;10.75;1.40;;;16.80;39.80;;;;;;5027525;28;20017;-70
2021/04/11 00:10:00;;;;;;;18.13;2.25;;;17.00;42.20;;;;;;5022483;28;20076;-74
2021/04/11 00:12:27;;;;;;;8.55;1.73;;;17.10;38.40;;;;;;5023370;28;20018;-69
2021/04/11 00:14:54;;;;;;;5.68;0.55;;;17.30;39.60;;;;;;5023645;28;20033;-66
2021/04/11 00:17:22;;;;;;;2.65;0.57;;;17.50;37.80;;;;;;5027731;28;20031;-69
2021/04/11 00:19:49;;;;;;;2.60;0.57;;;17.00;38.40;;;;;;5021257;28;20442;-67
2021/04/11 00:22:16;;;;;;;9.60;1.15;;;16.90;39.50;;;;;;5026758;28;20076;-68
2021/04/11 00:24:43;;;;;;;3.28;0.98;;;16.90;39.80;;;;;;5027436;28;20090;-68
2021/04/11 00:27:11;;;;;;;8.20;2.10;;;17.30;40.20;;;;;;5027239;28;20021;-69
2021/04/11 00:29:38;;;;;;;5.18;1.00;;;17.50;40.10;;;;;;5025844;28;20021;-70
2021/04/11 00:32:08;;;;;;;7.00;1.55;;;17.50;38.10;;;;;;5022162;28;20446;-70
2021/04/11 00:34:35;;;;;;;8.02;1.17;;;17.60;38.30;;;;;;5026519;28;20120;-68
2021/04/11 00:37:03;;;;;;;8.93;1.50;;;17.80;38.10;;;;;;5026222;28;20075;-69
2021/04/11 00:39:30;;;;;;;7.90;1.70;;;17.90;38.30;;;;;;5021800;28;20492;-70
2021/04/11 00:42:08;;;;;;;4.90;1.05;;;17.90;37.60;;;;;;5028069;28;20021;-69
2021/04/11 00:44:36;;;;;;;3.88;1.05;;;17.60;38.10;;;;;;5022111;28;20033;-67
2021/04/11 00:47:05;;;;;;;9.13;2.05;;;17.50;36.90;;;;;;5027200;28;20496;-68
2021/04/11 00:49:46;;;;;;;12.48;1.60;;;17.70;38.80;;;;;;5024009;28;20024;-69
2021/04/11 00:52:15;;;;;;;3.10;0.98;;;17.70;37.50;;;;;;5031164;28;20090;-70
2021/04/11 00:54:42;;;;;;;12.43;1.67;;;17.60;37.50;;;;;;5027417;28;20130;-68
2021/04/11 00:57:11;;;;;;;12.15;1.58;;;17.70;37.30;;;;;;5029220;28;20111;-68
2021/04/11 00:59:39;;;;;;;7.00;1.70;;;17.80;37.80;;;;;;5027130;28;20203;-68
2021/04/11 01:02:07;;;;;;;7.93;1.40;;;17.90;38.00;;;;;;5027879;28;20079;-66
2021/04/11 01:04:35;;;;;;;7.90;1.25;;;17.70;37.60;;;;;;5027404;28;20029;-65
2021/04/11 01:07:09;;;;;;;11.98;1.42;;;17.90;40.00;;;;;;5022006;28;20026;-65
2021/04/11 01:09:39;;;;;;;4.82;0.80;;;18.00;36.60;;;;;;5023140;28;20033;-67
2021/04/11 01:12:10;;;;;;;4.05;0.77;;;17.80;36.10;;;;;;5030550;28;20661;-68
2021/04/11 01:14:38;;;;;;;12.18;2.17;;;18.00;36.70;;;;;;5025566;28;20029;-64
2021/04/11 01:17:14;;;;;;;25.52;3.22;;;18.20;36.40;;;;;;5024137;28;20041;-67
2021/04/11 01:19:43;;;;;;;8.10;1.77;;;18.10;35.80;;;;;;5025996;28;20441;-66
2021/04/11 01:22:38;;;;;;;9.80;2.05;;;17.70;35.90;;;;;;5027995;28;20048;-65
2021/04/11 01:25:28;;;;;;;9.57;1.48;;;17.80;35.60;;;;;;5023927;28;20041;-67
2021/04/11 01:27:58;;;;;;;10.68;1.98;;;17.80;34.70;;;;;;5034131;28;20039;-66
2021/04/11 01:30:38;;;;;;;3.78;1.17;;;17.80;36.80;;;;;;5034504;28;20026;-66
2021/04/11 01:33:17;;;;;;;3.03;1.48;;;17.80;35.50;;;;;;5031986;28;20077;-65
2021/04/11 01:35:47;;;;;;;16.88;2.13;;;18.00;37.40;;;;;;5024040;28;20036;-66
2021/04/11 01:38:15;;;;;;;9.13;1.40;;;18.30;36.70;;;;;;5031082;28;20147;-66
2021/04/11 01:41:03;;;;;;;2.72;1.05;;;18.30;36.60;;;;;;5043144;28;20040;-67
2021/04/11 01:43:43;;;;;;;7.50;1.65;;;18.50;36.20;;;;;;5037300;28;20092;-66
2021/04/11 01:46:17;;;;;;;17.17;1.60;;;18.70;34.70;;;;;;5038561;28;20102;-66
2021/04/11 01:48:48;;;;;;;10.60;1.33;;;18.60;33.50;;;;;;5044467;28;20508;-66
2021/04/11 01:51:21;;;;;;;6.10;1.08;;;18.40;34.80;;;;;;5038013;28;20010;-67
2021/04/11 01:53:54;;;;;;;3.13;0.70;;;18.40;34.50;;;;;;5030665;28;20387;-66
2021/04/11 01:56:28;;;;;;;4.00;0.73;;;18.20;34.10;;;;;;5026358;28;20403;-66
2021/04/11 01:58:55;;;;;;;5.28;0.80;;;18.00;33.70;;;;;;5059109;28;20061;-66
2021/04/11 02:01:31;;;;;;;7.15;1.38;;;18.00;35.40;;;;;;5033446;28;20018;-68
2021/04/11 02:04:04;;;;;;;16.65;2.25;;;18.40;35.10;;;;;;5036366;28;20030;-67
2021/04/11 02:06:48;;;;;;;4.35;0.93;;;18.70;33.90;;;;;;5033831;28;20483;-67
2021/04/11 02:09:26;;;;;;;4.18;1.10;;;18.50;34.90;;;;;;5032712;28;20028;-66
2021/04/11 02:12:08;;;;;;;6.97;1.33;;;18.80;34.20;;;;;;5045619;28;20068;-66
2021/04/11 02:14:53;;;;;;;5.28;0.98;;;18.80;33.90;;;;;;5048689;28;20064;-68
2021/04/11 02:17:20;;;;;;;4.70;0.98;;;18.90;33.40;;;;;;5041161;28;20488;-67
2021/04/11 02:19:52;;;;;;;8.15;1.52;;;19.10;34.50;;;;;;5036662;28;20492;-67
2021/04/11 02:22:29;;;;;;;10.60;1.10;;;19.40;34.80;;;;;;5044643;28;20129;-67
2021/04/11 02:24:59;;;;;;;7.82;1.00;;;19.10;34.30;;;;;;5043729;28;20036;-66
2021/04/11 02:27:28;;;;;;;4.70;1.00;;;18.90;34.30;;;;;;5041183;28;20005;-66
2021/04/11 02:30:10;;;;;;;8.15;1.02;;;19.20;35.10;;;;;;5039160;28;20384;-65
2021/04/11 02:32:45;;;;;;;4.18;0.70;;;19.00;33.60;;;;;;5046657;28;20022;-67
2021/04/11 02:35:22;;;;;;;3.13;0.90;;;18.70;33.50;;;;;;5040390;28;20018;-67
2021/04/11 02:38:11;;;;;;;7.65;1.90;;;18.70;34.00;;;;;;5033566;28;20037;-65
2021/04/11 02:40:52;;;;;;;5.28;0.60;;;19.10;36.40;;;;;;5047768;28;20021;-67
2021/04/11 02:43:24;;;;;;;4.85;0.77;;;18.90;33.70;;;;;;5040258;28;20038;-64
2021/04/11 02:45:53;;;;;;;9.70;1.33;;;18.70;33.90;;;;;;5047808;23;20038;-65
2021/04/11 02:48:27;;;;;;;19.30;3.03;;;18.70;33.50;;;;;;5045535;28;20030;-65
2021/04/11 02:50:59;;;;;;;9.20;1.40;;;18.70;33.80;;;;;;5026583;28;20061;-65
2021/04/11 02:53:30;;;;;;;5.22;1.02;;;18.60;32.90;;;;;;5030352;28;20503;-66
2021/04/11 02:56:01;;;;;;;3.78;0.65;;;18.60;33.90;;;;;;5027801;28;20064;-66
2021/04/11 02:58:38;;;;;;;7.55;1.45;;;18.60;32.80;;;;;;5036761;28;20032;-67
2021/04/11 03:01:13;;;;;;;9.15;1.30;;;18.60;33.20;;;;;;5037290;28;20098;-67
2021/04/11 03:03:45;;;;;;;13.52;1.13;;;18.70;33.00;;;;;;5035613;28;20453;-66
2021/04/11 03:06:20;;;;;;;3.00;0.75;;;19.00;32.50;;;;;;5036128;28;20033;-66
2021/04/11 03:08:52;;;;;;;8.98;1.10;;;19.10;33.00;;;;;;5030505;28;20021;-67
2021/04/11 03:11:39;;;;;;;3.60;0.80;;;19.30;33.20;;;;;;5030556;28;20040;-69
2021/04/11 03:14:29;;;;;;;6.13;0.93;;;19.30;33.00;;;;;;5034074;28;20022;-66
2021/04/11 03:16:58;;;;;;;4.32;0.73;;;19.50;32.70;;;;;;5012552;28;20044;-67
2021/04/11 03:19:31;;;;;;;10.85;1.90;;;19.30;33.50;;;;;;5035731;28;20041;-67
2021/04/11 03:22:02;;;;;;;13.18;1.27;;;19.40;34.30;;;;;;5023233;28;20022;-68
2021/04/11 03:24:30;;;;;;;6.65;0.90;;;19.70;33.00;;;;;;5020399;28;20022;-68
2021/04/11 03:27:07;;;;;;;7.75;1.48;;;19.50;33.00;;;;;;5017210;28;20030;-67
2021/04/11 03:29:38;;;;;;;9.27;1.75;;;19.50;32.30;;;;;;5038349;28;20033;-66
2021/04/11 03:32:23;;;;;;;4.72;0.80;;;19.10;32.10;;;;;;5021360;28;20412;-66
2021/04/11 03:34:53;;;;;;;2.53;0.75;;;18.80;34.10;;;;;;5019953;28;20545;-67
2021/04/11 03:37:22;;;;;;;11.65;1.73;;;18.90;33.90;;;;;;5012663;28;20089;-68
2021/04/11 03:39:50;;;;;;;4.90;1.27;;;19.00;32.80;;;;;;5025072;28;20064;-67
2021/04/11 03:42:21;;;;;;;5.43;1.10;;;19.00;32.60;;;;;;5024872;28;20029;-68
2021/04/11 03:44:49;;;;;;;5.28;1.02;;;19.00;33.20;;;;;;5020143;28;20038;-68
2021/04/11 03:47:45;;;;;;;3.55;1.25;;;19.00;33.90;;;;;;5012227;28;20628;-66
2021/04/11 03:50:15;;;;;;;4.75;1.00;;;19.20;34.90;;;;;;5009749;28;20042;-67
2021/04/11 03:53:08;;;;;;;2.33;0.80;;;19.50;34.10;;;;;;5012710;28;20330;-67
2021/04/11 03:55:45;;;;;;;6.53;0.93;;;19.60;34.00;;;;;;5019495;28;20036;-68
2021/04/11 03:58:30;;;;;;;4.53;0.95;;;19.90;33.90;;;;;;5010710;28;20076;-67
2021/04/11 04:01:30;;;;;;;5.90;0.90;;;19.70;32.00;;;;;;5019187;28;20048;-67
2021/04/11 04:04:18;;;;;;;3.45;0.65;;;19.50;33.70;;;;;;5020317;28;20128;-67
2021/04/11 04:07:08;;;;;;;4.22;0.68;;;19.80;33.90;;;;;;5010414;28;20034;-67
2021/04/11 04:09:39;;;;;;;5.73;1.03;;;20.10;33.80;;;;;;4328016;28;10000731;-69
2021/04/11 04:12:52;;;;;;;5.30;0.98;;;19.80;32.40;;;;;;5012562;28;20325;-68
2021/04/11 04:15:54;;;;;;;4.45;0.80;;;19.30;32.90;;;;;;5014778;28;20037;-76
2021/04/11 04:18:21;;;;;;;10.63;1.42;;;19.60;33.50;;;;;;5012016;28;20568;-66
2021/04/11 04:20:49;;;;;;;3.65;0.80;;;19.90;33.20;;;;;;5019141;28;20095;-66
2021/04/11 04:23:39;;;;;;;0.90;0.50;;;19.70;32.00;;;;;;5012491;28;20544;-68
2021/04/11 04:26:34;;;;;;;7.30;1.30;;;19.50;33.10;;;;;;5034109;28;20029;-67
2021/04/11 04:29:20;;;;;;;18.38;2.22;;;19.30;33.30;;;;;;5014063;28;20033;-68
2021/04/11 04:31:51;;;;;;;7.10;1.13;;;19.10;32.30;;;;;;5018339;28;20159;-67
2021/04/11 04:34:33;;;;;;;7.00;1.40;;;19.00;33.90;;;;;;5014754;28;20500;-68
2021/04/11 04:37:23;;;;;;;7.32;0.95;;;19.30;33.80;;;;;;5010374;28;20037;-67
2021/04/11 04:40:08;;;;;;;6.72;1.23;;;19.40;32.50;;;;;;5017126;28;20025;-67
2021/04/11 04:42:46;;;;;;;3.88;0.50;;;19.20;34.00;;;;;;5006512;28;20037;-72
2021/04/11 04:45:23;;;;;;;3.08;0.63;;;19.20;33.90;;;;;;5006854;28;20112;-73
2021/04/11 04:47:57;;;;;;;1.65;0.52;;;19.20;34.50;;;;;;5008083;28;20041;-71
2021/04/11 04:50:29;;;;;;;1.83;0.68;;;19.30;32.60;;;;;;5036319;28;20033;-74
2021/04/11 04:53:20;;;;;;;1.35;0.50;;;19.30;33.10;;;;;;5009751;28;20172;-69
2021/04/11 04:55:54;;;;;;;2.15;0.73;;;19.20;34.10;;;;;;5006951;28;20091;-72
2021/04/11 04:59:00;;;;;;;2.13;0.60;;;19.50;34.10;;;;;;5002155;28;20026;-70
2021/04/11 05:01:56;;;;;;;2.30;0.57;;;19.70;34.40;;;;;;5012090;28;20045;-68
2021/04/11 05:04:30;;;;;;;2.60;0.70;;;19.80;33.70;;;;;;5012929;28;20042;-69
2021/04/11 05:07:20;;;;;;;3.10;0.75;;;19.50;33.80;;;;;;5009329;28;20243;-69
2021/04/11 05:10:12;;;;;;;5.32;1.13;;;19.30;31.70;;;;;;5002779;28;20030;-68
2021/04/11 05:13:11;;;;;;;0.52;0.32;;;19.40;32.50;;;;;;5011581;28;20124;-69
2021/04/11 05:15:42;;;;;;;0.88;0.43;;;19.70;32.60;;;;;;5013483;28;20164;-69
2021/04/11 05:18:40;;;;;;;2.05;0.73;;;19.60;33.10;;;;;;5010905;28;20118;-71
2021/04/11 05:21:23;;;;;;;3.90;0.77;;;19.80;32.80;;;;;;5010914;28;20159;-69
2021/04/11 05:24:12;;;;;;;5.82;0.80;;;19.90;33.30;;;;;;5004192;28;20021;-68
2021/04/11 05:27:00;;;;;;;;;;;;;;;;;;;;;
2021/04/11 05:29:53;;;;;;;2.47;0.70;;;19.20;33.10;;;;;;5010305;28;20032;-67
2021/04/11 05:32:22;;;;;;;2.13;0.60;;;19.00;34.90;;;;;;5019489;28;20022;-68
2021/04/11 05:34:57;;;;;;;1.83;0.60;;;19.20;34.20;;;;;;5013429;28;20322;-68
2021/04/11 05:37:28;;;;;;;2.20;0.80;;;19.10;34.40;;;;;;5008153;28;20040;-68
2021/04/11 05:40:22;;;;;;;2.08;0.63;;;19.40;34.60;;;;;;5021039;28;20051;-69
2021/04/11 05:43:16;;;;;;;3.13;0.50;;;19.30;32.80;;;;;;5018164;28;20475;-68
2021/04/11 05:46:05;;;;;;;2.33;0.65;;;19.10;32.30;;;;;;5012904;28;20533;-67
2021/04/11 05:48:47;;;;;;;4.03;0.80;;;18.50;32.50;;;;;;5012892;28;20022;-70
2021/04/11 05:51:32;;;;;;;0.77;0.47;;;18.60;33.10;;;;;;5012143;28;20060;-71
2021/04/11 05:54:47;;;;;;;4.45;0.50;;;18.50;32.50;;;;;;5011018;28;20444;-67
2021/04/11 05:57:43;;;;;;;2.92;0.55;;;18.80;33.20;;;;;;5000749;28;20040;-69
2021/04/11 06:00:26;;;;;;;7.53;0.82;;;18.90;32.60;;;;;;5009951;28;20459;-71
2021/04/11 06:02:59;;;;;;;1.25;0.50;;;18.90;33.00;;;;;;5034959;28;20543;-71
2021/04/11 06:05:41;;;;;;;3.38;0.70;;;18.70;32.80;;;;;;5013292;28;20088;-69
2021/04/11 06:08:31;;;;;;;1.25;0.50;;;18.70;32.10;;;;;;5011458;28;20021;-73
2021/04/11 06:11:12;;;;;;;3.67;0.50;;;18.60;32.20;;;;;;4994443;28;20034;-73
2021/04/11 06:13:50;;;;;;;3.67;1.08;;;18.90;32.80;;;;;;5041587;28;20761;-69
2021/04/11 06:16:23;;;;;;;2.90;0.65;;;19.00;33.30;;;;;;5036852;28;20120;-71
2021/04/11 06:18:56;;;;;;;1.80;0.47;;;19.00;32.70;;;;;;5012741;28;20033;-71
2021/04/11 06:21:40;;;;;;;3.00;0.80;;;18.90;33.30;;;;;;5012740;28;20030;-68
2021/04/11 06:24:17;;;;;;;0.80;0.30;;;18.90;32.80;;;;;;5016545;28;20432;-70
2021/04/11 06:27:19;;;;;;;1.05;0.40;;;18.90;33.20;;;;;;5013414;28;20038;-68
2021/04/11 06:30:08;;;;;;;2.13;0.52;;;19.30;32.30;;;;;;5032084;28;20939;-68
2021/04/11 06:32:49;;;;;;;1.42;0.43;;;19.70;32.40;;;;;;5015607;28;20833;-69
2021/04/11 06:35:26;;;;;;;1.02;0.43;;;19.70;32.10;;;;;;5027570;28;20061;-70
2021/04/11 06:38:02;;;;;;;2.88;0.63;;;19.70;32.20;;;;;;5022903;28;20649;-69
2021/04/11 06:40:52;;;;;;;1.40;0.50;;;19.60;32.00;;;;;;5008647;28;20026;-67
2021/04/11 06:43:23;;;;;;;2.75;0.70;;;19.40;33.30;;;;;;5026546;28;20488;-68
2021/04/11 06:46:01;;;;;;;2.13;0.47;;;19.20;33.50;;;;;;5022595;28;20028;-66
2021/04/11 06:49:09;;;;;;;2.25;0.60;;;19.30;33.90;;;;;;5008402;28;20026;-68
2021/04/11 06:52:03;;;;;;;3.55;0.73;;;19.30;33.30;;;;;;5013155;28;20034;-67
2021/04/11 06:54:49;;;;;;;3.10;0.95;;;19.20;34.10;;;;;;5013483;28;20026;-67
2021/04/11 06:57:33;;;;;;;3.40;0.77;;;19.20;33.80;;;;;;5006811;28;20025;-69
2021/04/11 07:00:08;;;;;;;2.35;0.60;;;18.90;34.00;;;;;;5006319;28;20030;-69
2021/04/11 07:03:14;;;;;;;2.80;0.80;;;18.30;34.40;;;;;;5018496;28;20022;-71
2021/04/11 07:05:58;;;;;;;4.53;1.00;;;18.20;35.30;;;;;;5038738;28;20525;-71
2021/04/11 07:09:08;;;;;;;5.97;0.95;;;17.90;35.90;;;;;;5020435;28;20026;-71
2021/04/11 07:12:11;;;;;;;1.98;0.70;;;17.90;36.20;;;;;;4975936;28;20394;-72
2021/04/11 07:14:44;;;;;;;1.85;0.50;;;17.80;35.90;;;;;;4997543;28;20587;-68
2021/04/11 07:17:30;;;;;;;0.95;0.40;;;17.60;36.40;;;;;;5003299;28;20351;-71
2021/04/11 07:20:09;;;;;;;2.65;1.13;;;17.40;36.90;;;;;;5007367;28;20439;-72
2021/04/11 07:22:51;;;;;;;0.75;0.43;;;17.00;37.90;;;;;;5036020;28;20400;-70
2021/04/11 07:25:25;;;;;;;2.13;1.10;;;16.90;38.40;;;;;;5013240;28;20029;-69
2021/04/11 07:28:10;;;;;;;3.75;0.98;;;16.80;38.40;;;;;;5016064;28;20028;-68
2021/04/11 07:31:07;;;;;;;2.00;1.10;;;16.60;38.60;;;;;;5019259;28;20156;-67
2021/04/11 07:33:47;;;;;;;1.80;0.60;;;16.30;39.40;;;;;;5011587;28;20088;-70
2021/04/11 07:36:37;;;;;;;2.15;0.73;;;16.00;39.60;;;;;;5010807;28;20036;-72
2021/04/11 07:39:11;;;;;;;2.05;0.63;;;15.70;39.90;;;;;;5014185;28;20033;-71
2021/04/11 07:42:25;;;;;;;2.13;0.88;;;15.60;40.40;;;;;;5008856;28;20044;-72
2021/04/11 07:45:27;;;;;;;2.72;0.77;;;15.50;41.30;;;;;;5031187;28;20385;-70
2021/04/11 07:48:15;;;;;;;1.58;0.50;;;15.30;41.30;;;;;;4984254;28;20046;-70
2021/04/11 07:51:20;;;;;;;2.83;0.70;;;15.20;41.30;;;;;;4992572;28;20038;-70
2021/04/11 07:54:11;;;;;;;2.50;0.73;;;15.20;41.10;;;;;;4987677;28;20508;-70
2021/04/11 07:57:15;;;;;;;2.40;0.63;;;15.10;40.80;;;;;;4990283;28;20034;-67
2021/04/11 08:00:10;;;;;;;2.25;0.70;;;15.00;41.50;;;;;;4987297;28;20480;-70
2021/04/11 08:02:44;;;;;;;2.53;0.70;;;15.00;41.50;;;;;;4999530;28;20285;-69
2021/04/11 08:05:26;;;;;;;1.15;0.57;;;15.00;42.00;;;;;;4983991;28;20034;-71
2021/04/11 08:08:17;;;;;;;2.47;0.90;;;14.90;41.80;;;;;;4984610;28;20027;-70
2021/04/11 08:11:03;;;;;;;3.55;1.02;;;14.90;42.20;;;;;;4983496;28;20038;-70
2021/04/11 08:13:45;;;;;;;1.17;0.60;;;14.80;42.70;;;;;;4990680;28;20529;-69
2021/04/11 08:16:46;;;;;;;1.33;0.63;;;14.80;42.30;;;;;;4997134;28;20037;-71
2021/04/11 08:19:40;;;;;;;2.35;0.82;;;14.80;42.50;;;;;;5012070;28;20615;-68
2021/04/11 08:22:28;;;;;;;2.10;0.77;;;14.70;43.10;;;;;;4985961;28;20109;-71
2021/04/11 08:25:32;;;;;;;1.77;0.80;;;14.70;43.10;;;;;;4983569;28;20038;-70
2021/04/11 08:28:12;;;;;;;4.78;0.82;;;14.60;43.40;;;;;;4980744;28;20023;-68
2021/04/11 08:31:15;;;;;;;1.98;0.70;;;14.40;43.70;;;;;;4983457;28;20068;-70
2021/04/11 08:34:18;;;;;;;5.05;0.90;;;14.40;43.70;;;;;;5011496;28;20022;-71
2021/04/11 08:36:58;;;;;;;3.72;1.30;;;14.30;43.90;;;;;;4941506;28;20132;-68
2021/04/11 08:39:32;;;;;;;1.92;0.77;;;14.20;43.90;;;;;;4988087;28;20649;-69
2021/04/11 08:42:24;;;;;;;5.63;1.00;;;14.30;43.60;;;;;;4992846;28;20026;-72
2021/04/11 08:45:04;;;;;;;4.22;1.00;;;14.30;43.70;;;;;;4980682;28;20045;-73
2021/04/11 08:48:09;;;;;;;3.85;0.80;;;14.30;43.40;;;;;;5004535;28;20135;-67
2021/04/11 08:50:36;;;;;;;2.78;0.70;;;14.20;43.60;;;;;;4993172;28;20046;-70
2021/04/11 08:53:28;;;;;;;7.93;2.13;;;14.20;44.00;;;;;;5010103;28;20029;-71
2021/04/11 08:56:10;;;;;;;2.78;0.95;;;14.10;44.20;;;;;;5009219;28;20030;-72
2021/04/11 08:59:05;;;;;;;3.05;0.80;;;14.10;44.20;;;;;;5008825;28;20029;-70
2021/04/11 09:02:16;;;;;;;2.05;1.05;;;14.00;44.60;;;;;;5009992;28;20026;-66
2021/04/11 09:05:06;;;;;;;1.67;0.80;;;13.90;45.30;;;;;;4975067;28;20038;-71
2021/04/11 09:08:15;;;;;;;1.73;0.85;;;13.70;46.00;;;;;;5012474;28;20064;-69
2021/04/11 09:11:07;;;;;;;2.40;0.60;;;13.60;46.50;;;;;;4975323;28;20049;-72
2021/04/11 09:14:09;;;;;;;1.58;0.80;;;13.60;46.30;;;;;;4991302;28;20378;-70
2021/04/11 09:17:09;;;;;;;1.35;0.68;;;13.60;46.60;;;;;;4989463;28;20357;-74
2021/04/11 09:20:09;;;;;;;1.42;0.60;;;13.60;46.40;;;;;;4991960;28;20048;-70
2021/04/11 09:23:05;;;;;;;1.80;1.08;;;13.70;45.80;;;;;;4984346;28;20430;-71
2021/04/11 09:25:35;;;;;;;3.33;0.88;;;13.70;45.90;;;;;;4986002;28;20033;-74
2021/04/11 09:28:34;;;;;;;3.22;0.80;;;13.70;46.00;;;;;;4984156;28;20022;-69
2021/04/11 09:31:07;;;;;;;1.45;0.77;;;13.70;46.30;;;;;;4981233;28;20018;-76
2021/04/11 09:34:00;;;;;;;4.63;1.40;;;13.70;46.10;;;;;;4983578;28;20014;-68
2021/04/11 09:36:41;;;;;;;3.42;0.65;;;13.60;46.60;;;;;;4985667;28;20030;-70
2021/04/11 09:39:11;;;;;;;2.03;0.70;;;13.60;46.40;;;;;;4987147;28;20041;-72
2021/04/11 09:42:02;;;;;;;3.08;0.80;;;13.70;50.80;;;;;;4990139;28;20141;-68
2021/04/11 09:44:44;;;;;;;1.25;0.43;;;14.00;46.90;;;;;;5009991;28;20040;-71
2021/04/11 09:47:38;;;;;;;1.88;0.80;;;14.10;46.10;;;;;;4981925;28;20114;-69
2021/04/11 09:50:06;;;;;;;6.65;0.98;;;14.10;45.90;;;;;;5013024;28;20026;-67
2021/04/11 09:52:51;;;;;;;2.50;0.88;;;14.10;47.40;;;;;;4988287;28;20278;-67
2021/04/11 09:55:36;;;;;;;2.15;0.85;;;14.00;49.70;;;;;;4977832;28;20438;-68
2021/04/11 09:58:34;;;;;;;1.95;0.70;;;14.10;49.00;;;;;;4985503;28;20354;-73
2021/04/11 10:01:16;;;;;;;1.98;0.60;;;14.00;45.70;;;;;;4987861;28;20092;-71
2021/04/11 10:04:09;;;;;;;4.87;2.90;;;14.00;46.40;;;;;;4987298;28;20126;-70
2021/04/11 10:07:03;;;;;;;2.97;2.05;;;14.00;46.50;;;;;;4986625;28;20042;-70
2021/04/11 10:10:02;;;;;;;15.32;11.77;;;13.90;47.20;;;;;;4985686;28;20555;-68
2021/04/11 10:12:54;;;;;;;3.92;1.20;;;13.80;48.50;;;;;;4956352;28;20125;-71
2021/04/11 10:15:48;;;;;;;3.45;1.90;;;13.80;47.60;;;;;;4989919;28;20022;-69
2021/04/11 10:18:24;;;;;;;5.32;1.85;;;13.70;46.90;;;;;;4991355;28;20034;-68
2021/04/11 10:20:52;;;;;;;4.55;1.05;;;13.70;47.40;;;;;;4988578;28;20118;-69
2021/04/11 10:23:42;;;;;;;1.48;0.70;;;13.70;49.10;;;;;;4992602;28;20088;-68
2021/04/11 10:26:22;;;;;;;2.00;0.85;;;13.80;47.90;;;;;;4985498;28;20034;-69
2021/04/11 10:29:06;;;;;;;2.17;0.60;;;13.70;47.00;;;;;;4980043;28;20034;-65
2021/04/11 10:31:52;;;;;;;2.10;0.63;;;13.60;47.00;;;;;;4987629;28;20026;-69
2021/04/11 10:34:40;;;;;;;1.63;0.68;;;13.40;47.20;;;;;;4985782;28;20062;-68
2021/04/11 10:37:33;;;;;;;2.47;0.80;;;13.30;47.30;;;;;;4990875;28;20041;-71
2021/04/11 10:40:45;;;;;;;4.60;0.50;;;13.30;47.60;;;;;;4991666;28;20370;-67
2021/04/11 10:43:21;;;;;;;3.45;0.85;;;13.30;47.70;;;;;;4990560;28;20516;-70
2021/04/11 10:46:14;;;;;;;2.13;0.90;;;13.20;47.60;;;;;;4647704;28;10000279;-68
2021/04/11 10:49:19;;;;;;;2.50;0.73;;;13.20;47.90;;;;;;4986405;28;20304;-69
2021/04/11 10:52:06;;;;;;;2.65;1.40;;;13.10;48.10;;;;;;4971375;28;20386;-71
2021/04/11 10:54:58;;;;;;;4.90;1.13;;;13.10;48.40;;;;;;4981610;28;20117;-73
2021/04/11 10:58:09;;;;;;;1.98;0.80;;;13.10;48.70;;;;;;4991124;28;20033;-75
2021/04/11 11:01:12;;;;;;;4.97;1.73;;;13.00;48.40;;;;;;4977906;28;20054;-69
2021/04/11 11:04:19;;;;;;;2.63;1.10;;;13.00;49.20;;;;;;4971151;28;20526;-73
2021/04/11 11:07:38;;;;;;;2.80;1.40;;;13.00;48.90;;;;;;4990621;28;20042;-69
2021/04/11 11:10:43;;;;;;;4.70;1.17;;;12.90;49.30;;;;;;4989988;28;20041;-68
2021/04/11 11:13:43;;;;;;;3.00;1.20;;;12.80;49.50;;;;;;4992039;28;20050;-69
2021/04/11 11:16:36;;;;;;;5.15;2.05;;;12.80;50.20;;;;;;4985790;28;20033;-68
2021/04/11 11:19:03;;;;;;;5.53;1.40;;;12.70;50.40;;;;;;4987501;28;20114;-68
2021/04/11 11:21:59;;;;;;;2.65;0.95;;;12.70;50.40;;;;;;4988761;28;20541;-70
2021/04/11 11:24:29;;;;;;;5.53;1.17;;;12.70;49.90;;;;;;4992449;28;20041;-66
2021/04/11 11:27:26;;;;;;;4.47;0.80;;;12.70;49.90;;;;;;4988096;28;20555;-70
2021/04/11 11:30:23;;;;;;;0.82;0.55;;;12.70;49.90;;;;;;4986870;28;20024;-71
2021/04/11 11:33:27;;;;;;;2.10;1.08;;;12.70;50.20;;;;;;4980680;28;20106;-68
2021/04/11 11:36:09;;;;;;;4.05;1.10;;;12.60;49.90;;;;;;4986667;28;20021;-67
2021/04/11 11:39:03;;;;;;;6.50;2.13;;;12.60;50.70;;;;;;4995265;28;20038;-64
2021/04/11 11:41:37;;;;;;;4.32;1.80;;;12.60;50.60;;;;;;4988750;28;20108;-65
2021/04/11 11:44:26;;;;;;;6.22;1.83;;;12.60;50.50;;;;;;4991888;28;20038;-67
2021/04/11 11:47:13;;;;;;;6.47;2.17;;;12.60;50.60;;;;;;4985066;28;20034;-63
2021/04/11 11:50:03;;;;;;;3.10;1.50;;;12.70;50.50;;;;;;4997337;28;20431;-64
2021/04/11 11:52:45;;;;;;;2.33;1.40;;;12.70;50.40;;;;;;5001911;28;20037;-63
2021/04/11 11:55:21;;;;;;;4.60;1.02;;;12.60;51.20;;;;;;4995077;28;20040;-64
2021/04/11 11:58:20;;;;;;;5.78;1.00;;;12.50;51.60;;;;;;4992896;28;20087;-64
2021/04/11 12:00:56;;;;;;;1.55;1.00;;;12.30;52.10;;;;;;4999843;28;20113;-67
2021/04/11 12:03:34;;;;;;;2.30;0.70;;;12.30;52.20;;;;;;4998538;28;20096;-68
2021/04/11 12:06:07;;;;;;;1.73;0.73;;;12.20;52.90;;;;;;4998916;28;20739;-66
2021/04/11 12:08:56;;;;;;;2.72;0.90;;;12.20;52.80;;;;;;5002837;28;20034;-64
2021/04/11 12:11:58;;;;;;;3.55;1.00;;;12.10;53.10;;;;;;5001274;28;20025;-68
2021/04/11 12:14:33;;;;;;;1.90;0.70;;;12.10;53.40;;;;;;5002969;28;20029;-67
2021/04/11 12:17:12;;;;;;;4.05;1.05;;;12.00;53.40;;;;;;4997523;28;20053;-67
2021/04/11 12:19:47;;;;;;;3.15;0.95;;;12.00;53.50;;;;;;5002056;28;20542;-67
2021/04/11 12:22:44;;;;;;;4.95;1.20;;;12.10;53.30;;;;;;5006261;28;20097;-67
2021/04/11 12:25:20;;;;;;;3.40;1.70;;;12.10;53.10;;;;;;5000384;28;20050;-67
2021/04/11 12:27:48;;;;;;;5.05;1.10;;;12.10;53.00;;;;;;5001759;28;20029;-68
2021/04/11 12:30:29;;;;;;;4.15;1.05;;;12.10;53.30;;;;;;5001576;28;20034;-68
2021/04/11 12:33:27;;;;;;;4.10;0.82;;;12.10;53.30;;;;;;5001505;28;20045;-66
2021/04/11 12:35:57;;;;;;;2.13;0.85;;;12.10;53.20;;;;;;5002911;28;20448;-67
2021/04/11 12:38:36;;;;;;;2.97;1.10;;;12.10;52.80;;;;;;5001014;28;20389;-66
2021/04/11 12:41:04;;;;;;;4.57;1.10;;;12.20;53.00;;;;;;5000823;28;20037;-66
2021/04/11 12:44:03;;;;;;;4.53;1.33;;;12.20;52.90;;;;;;5000891;28;20021;-66
2021/04/11 12:46:48;;;;;;;5.50;1.65;;;12.10;52.90;;;;;;4999388;28;20066;-67
2021/04/11 12:49:28;;;;;;;3.50;1.40;;;12.20;52.50;;;;;;5000482;28;20133;-66
2021/04/11 12:52:09;;;;;;;3.42;1.40;;;12.30;52.20;;;;;;5004519;28;20018;-67
2021/04/11 12:55:00;;;;;;;2.10;0.90;;;12.40;52.00;;;;;;5002982;28;20026;-67
2021/04/11 12:57:43;;;;;;;2.72;1.17;;;12.40;51.70;;;;;;4998995;28;20056;-65
2021/04/11 13:00:13;;;;;;;4.18;1.60;;;12.40;52.30;;;;;;5001077;28;20032;-67
2021/04/11 13:02:46;;;;;;;4.25;1.50;;;12.30;52.20;;;;;;4999649;28;20030;-68
2021/04/11 13:05:23;;;;;;;8.05;1.58;;;12.30;52.50;;;;;;5004418;28;20561;-68
2021/04/11 13:08:04;;;;;;;2.85;0.95;;;12.30;52.70;;;;;;5003250;28;20022;-68
2021/04/11 13:10:47;;;;;;;4.18;1.27;;;12.30;52.40;;;;;;5004921;28;20044;-67
2021/04/11 13:13:28;;;;;;;2.38;1.05;;;12.30;52.30;;;;;;4996971;28;20029;-67
2021/04/11 13:15:55;;;;;;;2.80;0.98;;;12.40;52.10;;;;;;5003402;28;20030;-70
2021/04/11 13:18:37;;;;;;;6.65;1.48;;;12.50;51.60;;;;;;5002932;28;20021;-68
2021/04/11 13:21:10;;;;;;;1.20;0.70;;;12.50;51.60;;;;;;5001945;28;20504;-70
2021/04/11 13:23:52;;;;;;;9.18;0.98;;;12.50;51.60;;;;;;5003062;28;20570;-69
2021/04/11 13:26:43;;;;;;;6.28;1.40;;;12.60;52.00;;;;;;4998880;28;20083;-69
2021/04/11 13:29:25;;;;;;;2.70;1.00;;;12.50;52.40;;;;;;4998062;28;20439;-68
2021/04/11 13:32:01;;;;;;;2.90;0.80;;;12.40;52.60;;;;;;4997051;28;20018;-67
2021/04/11 13:34:32;;;;;;;4.03;1.50;;;12.40;52.60;;;;;;4998259;28;20543;-66
2021/04/11 13:37:00;;;;;;;2.65;0.73;;;12.30;52.80;;;;;;5000885;28;20508;-67
2021/04/11 13:39:35;;;;;;;2.10;0.80;;;12.20;53.20;;;;;;5000472;28;20465;-65
2021/04/11 13:42:37;;;;;;;3.22;0.85;;;12.20;53.20;;;;;;5000601;28;20028;-68
2021/04/11 13:45:11;;;;;;;3.75;0.80;;;12.20;53.30;;;;;;4982301;28;20034;-66
2021/04/11 13:48:00;;;;;;;3.03;0.80;;;12.20;53.10;;;;;;4997756;28;20057;-67
2021/04/11 13:51:03;;;;;;;3.70;0.90;;;12.10;53.50;;;;;;5002817;28;20464;-67
2021/04/11 13:53:39;;;;;;;5.68;0.75;;;12.00;53.90;;;;;;4999377;28;20021;-66
2021/04/11 13:56:20;;;;;;;3.25;0.80;;;11.90;54.10;;;;;;4999828;28;20025;-68
2021/04/11 13:58:56;;;;;;;3.35;0.95;;;11.80;54.60;;;;;;5000102;28;20112;-67
2021/04/11 14:01:41;;;;;;;2.20;0.98;;;11.80;54.30;;;;;;4996774;28;20038;-66
2021/04/11 14:04:15;;;;;;;2.17;0.80;;;11.90;54.30;;;;;;5000889;28;20037;-66
2021/04/11 14:07:16;;;;;;;2.22;0.93;;;11.80;54.40;;;;;;4998914;28;20034;-66